Time;durP1;ratioP1;P1;durP2;ratioP2;P2;SDS_P1;SDS_P2;PMS_P1;PMS_P2;Temp;Humidity;BMP_temperature;BMP_pressure;BME280_temperature;BME280_humidity;BME280_pressure;Samples;Min_cycle;Max_cycle;Signal;HPM_P1;HPM_P2
2020/12/18 00:01:29;;;;;;;6.80;1.45;;;15.40;92.40;;;;;;5050423;28;20032;-72
2020/12/18 00:03:57;;;;;;;9.55;2.22;;;15.20;93.30;;;;;;5050595;28;20028;-72
2020/12/18 00:06:30;;;;;;;10.45;2.67;;;14.80;94.60;;;;;;5050450;28;20024;-72
2020/12/18 00:08:57;;;;;;;10.07;2.30;;;14.90;94.40;;;;;;5050400;28;20029;-72
2020/12/18 00:11:26;;;;;;;9.13;1.90;;;14.60;94.80;;;;;;5051139;28;20025;-71
2020/12/18 00:13:54;;;;;;;7.88;1.88;;;14.50;95.70;;;;;;5054116;28;20040;-71
2020/12/18 00:16:22;;;;;;;6.15;1.65;;;14.10;96.60;;;;;;5054177;28;20029;-71
2020/12/18 00:18:49;;;;;;;8.18;2.38;;;13.90;97.20;;;;;;5053494;28;20036;-72
2020/12/18 00:21:25;;;;;;;8.35;1.98;;;13.40;98.50;;;;;;5051814;28;20025;-72
2020/12/18 00:23:54;;;;;;;10.05;1.80;;;12.90;97.90;;;;;;5044698;28;20037;-73
2020/12/18 00:26:21;;;;;;;10.90;2.30;;;12.60;99.00;;;;;;5053817;28;20029;-72
2020/12/18 00:28:49;;;;;;;13.13;2.72;;;12.40;99.50;;;;;;5042891;28;20029;-72
2020/12/18 00:31:17;;;;;;;11.75;2.20;;;12.10;99.60;;;;;;5047025;28;20021;-72
2020/12/18 00:33:44;;;;;;;8.13;1.80;;;11.80;99.90;;;;;;5053471;28;20060;-74
2020/12/18 00:36:12;;;;;;;7.85;1.55;;;11.60;99.90;;;;;;5042983;28;20509;-72
2020/12/18 00:38:40;;;;;;;11.18;2.60;;;11.50;99.90;;;;;;5033595;28;20140;-73
2020/12/18 00:41:07;;;;;;;17.33;3.40;;;11.30;99.90;;;;;;5033406;28;20025;-71
2020/12/18 00:43:35;;;;;;;10.88;2.13;;;11.20;99.90;;;;;;5033729;28;20084;-71
2020/12/18 00:46:06;;;;;;;12.63;2.60;;;11.00;99.90;;;;;;5046465;28;20029;-73
2020/12/18 00:48:33;;;;;;;7.97;1.77;;;10.90;99.90;;;;;;5053602;28;20032;-74
2020/12/18 00:51:00;;;;;;;11.38;3.05;;;10.70;99.90;;;;;;5038079;28;20021;-72
2020/12/18 00:53:27;;;;;;;10.23;2.08;;;10.60;99.90;;;;;;5033315;28;20045;-72
2020/12/18 00:55:54;;;;;;;11.68;3.50;;;10.50;99.90;;;;;;5033483;28;20378;-72
2020/12/18 00:58:21;;;;;;;13.63;2.53;;;10.40;99.90;;;;;;5033059;28;20050;-73
2020/12/18 01:00:48;;;;;;;12.15;2.28;;;10.20;99.90;;;;;;5033068;28;20322;-73
2020/12/18 01:03:15;;;;;;;17.02;3.08;;;10.10;99.90;;;;;;5045207;28;20033;-73
2020/12/18 01:05:42;;;;;;;9.52;3.33;;;10.10;99.90;;;;;;5033200;28;20032;-72
2020/12/18 01:08:09;;;;;;;12.23;4.00;;;10.00;99.90;;;;;;5033150;28;20036;-73
2020/12/18 01:10:36;;;;;;;21.60;6.15;;;9.90;99.90;;;;;;5050507;28;20062;-73
2020/12/18 01:13:03;;;;;;;18.60;5.70;;;10.00;99.90;;;;;;5052814;28;20380;-73
2020/12/18 01:15:30;;;;;;;26.50;13.20;;;9.90;99.90;;;;;;5053039;28;20032;-72
2020/12/18 01:17:56;;;;;;;12.30;6.63;;;9.90;99.90;;;;;;5053160;28;20385;-73
2020/12/18 01:20:23;;;;;;;22.77;7.82;;;9.90;99.90;;;;;;5048318;28;20037;-73
2020/12/18 01:22:51;;;;;;;31.77;15.38;;;9.90;99.90;;;;;;5032318;28;20040;-74
2020/12/18 01:25:18;;;;;;;16.08;6.97;;;9.80;99.90;;;;;;5032923;28;20029;-73
2020/12/18 01:27:45;;;;;;;16.00;8.00;;;9.80;99.90;;;;;;5032890;28;20041;-73
2020/12/18 01:30:12;;;;;;;12.52;4.03;;;9.70;99.90;;;;;;5032669;28;20037;-73
2020/12/18 01:32:40;;;;;;;17.33;7.50;;;9.70;99.90;;;;;;5032804;28;20030;-73
2020/12/18 01:35:07;;;;;;;14.13;7.72;;;9.60;99.90;;;;;;5033317;28;20029;-73
2020/12/18 01:37:33;;;;;;;24.40;8.63;;;9.60;99.90;;;;;;5048727;28;20032;-73
2020/12/18 01:40:00;;;;;;;26.58;13.20;;;9.50;99.90;;;;;;5052516;28;20028;-73
2020/12/18 01:42:27;;;;;;;26.90;13.10;;;9.50;99.90;;;;;;5052495;28;20040;-72
2020/12/18 01:44:57;;;;;;;20.65;6.07;;;9.40;99.90;;;;;;5052297;28;20029;-73
2020/12/18 01:47:32;;;;;;;11.38;2.83;;;9.30;99.90;;;;;;5051265;28;20037;-73
2020/12/18 01:49:59;;;;;;;16.20;3.38;;;9.20;99.90;;;;;;5052128;28;20025;-73
2020/12/18 01:52:26;;;;;;;18.40;4.95;;;9.20;99.90;;;;;;5052328;28;20508;-73
2020/12/18 01:55:04;;;;;;;15.20;2.83;;;9.20;99.90;;;;;;5050961;28;20040;-72
2020/12/18 01:57:32;;;;;;;17.65;3.83;;;9.10;99.90;;;;;;5052146;28;20029;-73
2020/12/18 02:00:08;;;;;;;19.70;6.47;;;9.10;99.90;;;;;;5044853;28;20367;-72
2020/12/18 02:02:36;;;;;;;11.55;3.38;;;9.00;99.90;;;;;;5032207;28;20021;-72
2020/12/18 02:05:04;;;;;;;11.98;3.15;;;9.00;99.90;;;;;;5032203;28;20029;-72
2020/12/18 02:07:31;;;;;;;11.90;2.75;;;9.00;99.90;;;;;;5032103;28;20374;-73
2020/12/18 02:09:59;;;;;;;14.02;2.33;;;8.90;99.90;;;;;;5032866;28;20029;-72
2020/12/18 02:12:26;;;;;;;25.02;9.18;;;8.90;99.90;;;;;;5032314;28;20417;-72
2020/12/18 02:14:53;;;;;;;12.63;3.00;;;8.80;99.90;;;;;;5032147;28;20033;-73
2020/12/18 02:17:20;;;;;;;21.42;7.00;;;8.80;99.90;;;;;;5031707;28;20474;-72
2020/12/18 02:19:52;;;;;;;10.23;2.03;;;8.80;99.90;;;;;;5030424;28;20041;-72
2020/12/18 02:22:23;;;;;;;36.13;18.25;;;8.80;99.90;;;;;;5031974;28;20026;-73
2020/12/18 02:24:57;;;;;;;24.48;7.45;;;8.70;99.90;;;;;;5030586;28;20044;-72
2020/12/18 02:27:24;;;;;;;33.03;15.70;;;8.80;99.90;;;;;;5032177;28;20037;-73
2020/12/18 02:29:51;;;;;;;36.08;14.88;;;8.70;99.90;;;;;;5035221;28;20036;-72
2020/12/18 02:32:20;;;;;;;41.95;16.90;;;8.70;99.90;;;;;;5051348;28;20354;-72
2020/12/18 02:34:47;;;;;;;13.90;4.80;;;8.70;99.90;;;;;;5050704;28;20036;-72
2020/12/18 02:37:14;;;;;;;27.85;11.30;;;8.70;99.90;;;;;;5051601;28;20025;-72
2020/12/18 02:39:41;;;;;;;18.77;8.88;;;8.80;99.90;;;;;;5051351;28;20036;-72
2020/12/18 02:42:09;;;;;;;12.77;4.25;;;8.70;99.90;;;;;;5047023;28;20029;-73
2020/12/18 02:44:36;;;;;;;12.73;2.22;;;8.70;99.90;;;;;;5039672;28;20474;-72
2020/12/18 02:47:03;;;;;;;22.20;11.40;;;8.80;99.90;;;;;;5031493;28;20419;-72
2020/12/18 02:49:33;;;;;;;30.73;11.85;;;8.80;99.90;;;;;;5031661;28;20036;-72
2020/12/18 02:52:00;;;;;;;7.50;2.33;;;8.80;99.90;;;;;;5030958;28;20024;-72
2020/12/18 02:54:27;;;;;;;19.10;7.15;;;8.80;99.90;;;;;;5031487;28;20037;-73
2020/12/18 02:56:54;;;;;;;13.07;5.00;;;8.80;99.90;;;;;;5031806;28;20029;-73
2020/12/18 02:59:21;;;;;;;8.73;3.20;;;8.80;99.90;;;;;;5030858;28;20057;-73
2020/12/18 03:01:48;;;;;;;8.43;3.05;;;8.80;99.90;;;;;;5031195;28;20032;-74
2020/12/18 03:04:15;;;;;;;8.23;2.03;;;8.70;99.90;;;;;;5031375;28;20033;-73
2020/12/18 03:06:42;;;;;;;5.05;1.55;;;8.70;99.90;;;;;;5031256;28;20030;-73
2020/12/18 03:09:10;;;;;;;7.40;1.73;;;8.60;99.90;;;;;;5031438;28;20037;-72
2020/12/18 03:11:37;;;;;;;5.18;0.95;;;8.50;99.90;;;;;;5031422;28;20032;-70
2020/12/18 03:14:07;;;;;;;3.88;1.17;;;8.40;99.90;;;;;;5030980;28;20041;-73
2020/12/18 03:16:38;;;;;;;3.20;1.60;;;8.40;99.90;;;;;;5030868;28;20505;-73
2020/12/18 03:19:05;;;;;;;4.35;1.33;;;8.30;99.90;;;;;;5030154;28;20041;-73
2020/12/18 03:21:32;;;;;;;4.05;1.00;;;8.20;99.90;;;;;;5030959;28;20045;-72
2020/12/18 03:24:01;;;;;;;6.97;1.20;;;8.20;99.90;;;;;;5029650;28;20438;-74
2020/12/18 03:26:28;;;;;;;6.43;1.10;;;8.10;99.90;;;;;;5042105;28;20103;-73
2020/12/18 03:28:55;;;;;;;4.47;1.20;;;8.00;99.90;;;;;;5031638;28;20347;-73
2020/12/18 03:31:22;;;;;;;2.45;0.80;;;8.00;99.90;;;;;;5030955;28;20036;-73
2020/12/18 03:33:49;;;;;;;5.05;1.13;;;7.90;99.90;;;;;;5030942;28;20220;-73
2020/12/18 03:36:16;;;;;;;3.10;1.30;;;7.90;99.90;;;;;;5030766;28;20030;-74
2020/12/18 03:38:43;;;;;;;3.85;1.00;;;7.80;99.90;;;;;;5030099;28;20037;-73
2020/12/18 03:41:10;;;;;;;2.75;0.80;;;7.80;99.90;;;;;;5031054;28;20486;-73
2020/12/18 03:43:37;;;;;;;4.22;1.33;;;7.80;99.90;;;;;;5030863;28;20404;-73
2020/12/18 03:46:04;;;;;;;5.55;1.08;;;7.70;99.90;;;;;;5033439;28;20600;-72
2020/12/18 03:48:31;;;;;;;5.25;1.20;;;7.70;99.90;;;;;;5034498;28;20022;-73
2020/12/18 03:51:00;;;;;;;4.85;1.08;;;7.70;99.90;;;;;;5034518;28;20105;-74
2020/12/18 03:53:27;;;;;;;3.22;1.02;;;7.70;99.90;;;;;;5034582;28;20390;-73
2020/12/18 03:55:54;;;;;;;3.75;1.38;;;7.70;99.90;;;;;;5034527;28;20029;-74
2020/12/18 03:58:21;;;;;;;5.45;1.58;;;7.70;99.90;;;;;;5034466;28;20042;-73
2020/12/18 04:00:48;;;;;;;3.70;1.40;;;7.70;99.90;;;;;;5034655;28;20032;-73
2020/12/18 04:03:14;;;;;;;2.92;1.42;;;7.70;99.90;;;;;;5034523;28;20034;-74
2020/12/18 04:05:41;;;;;;;5.00;1.83;;;7.70;99.90;;;;;;5033881;28;20350;-73
2020/12/18 04:08:09;;;;;;;6.25;2.00;;;7.70;99.90;;;;;;5034358;28;20021;-73
2020/12/18 04:10:36;;;;;;;3.45;2.05;;;7.80;99.90;;;;;;5034302;28;20017;-73
2020/12/18 04:13:02;;;;;;;4.85;2.00;;;7.80;99.90;;;;;;5034192;28;20378;-72
2020/12/18 04:15:29;;;;;;;3.17;2.10;;;7.80;99.90;;;;;;5034088;28;20454;-72
2020/12/18 04:17:58;;;;;;;5.47;2.05;;;7.80;99.90;;;;;;5034342;28;20386;-72
2020/12/18 04:20:25;;;;;;;3.67;1.95;;;7.80;99.90;;;;;;5033797;28;20025;-72
2020/12/18 04:22:52;;;;;;;4.28;1.90;;;7.80;99.90;;;;;;5034229;28;20033;-72
2020/12/18 04:25:19;;;;;;;4.05;1.70;;;7.80;99.90;;;;;;5035142;28;20040;-72
2020/12/18 04:27:46;;;;;;;3.92;1.80;;;7.80;99.90;;;;;;5045634;28;20025;-73
2020/12/18 04:30:13;;;;;;;3.25;1.70;;;7.80;99.90;;;;;;5034235;28;20025;-72
2020/12/18 04:32:40;;;;;;;5.18;2.67;;;7.80;99.90;;;;;;5034654;28;20045;-73
2020/12/18 04:35:07;;;;;;;4.03;2.50;;;7.80;99.90;;;;;;5044144;28;20254;-72
2020/12/18 04:37:34;;;;;;;4.43;2.60;;;7.80;99.90;;;;;;5053614;28;20017;-72
2020/12/18 04:40:02;;;;;;;6.55;2.47;;;7.80;99.90;;;;;;5043769;28;20029;-73
2020/12/18 04:42:31;;;;;;;6.18;2.33;;;7.80;99.90;;;;;;5033959;28;20028;-72
2020/12/18 04:44:58;;;;;;;5.55;2.38;;;7.70;99.90;;;;;;5043088;28;20024;-72
2020/12/18 04:47:26;;;;;;;5.28;2.33;;;7.70;99.90;;;;;;5053822;28;20035;-71
2020/12/18 04:49:55;;;;;;;4.03;2.58;;;7.70;99.90;;;;;;5047964;28;20389;-73
2020/12/18 04:52:23;;;;;;;4.40;2.35;;;7.70;99.90;;;;;;5053389;28;20021;-73
2020/12/18 04:54:54;;;;;;;4.57;2.42;;;7.70;99.90;;;;;;5039486;28;20044;-72
2020/12/18 04:57:23;;;;;;;3.45;2.30;;;7.60;99.90;;;;;;5032720;28;20026;-72
2020/12/18 04:59:50;;;;;;;6.75;2.50;;;7.60;99.90;;;;;;5042547;28;20049;-73
2020/12/18 05:02:18;;;;;;;7.07;2.45;;;7.60;99.90;;;;;;5035858;28;20040;-73
2020/12/18 05:04:45;;;;;;;3.65;2.20;;;7.60;99.90;;;;;;5033524;28;20034;-72
2020/12/18 05:07:12;;;;;;;5.18;2.28;;;7.60;99.90;;;;;;5044284;28;20040;-73
2020/12/18 05:09:41;;;;;;;3.28;2.17;;;7.60;99.90;;;;;;5051364;28;20033;-73
2020/12/18 05:12:09;;;;;;;6.88;2.80;;;7.50;99.90;;;;;;5053445;28;20032;-73
2020/12/18 05:14:36;;;;;;;3.53;2.15;;;7.50;99.90;;;;;;5047388;28;20044;-72
2020/12/18 05:17:07;;;;;;;4.05;1.85;;;7.50;99.90;;;;;;5031355;28;20036;-72
2020/12/18 05:19:53;;;;;;;2.90;2.05;;;7.40;99.90;;;;;;5034045;28;20025;-72
2020/12/18 05:22:24;;;;;;;5.05;1.88;;;7.40;99.90;;;;;;5040179;28;20390;-71
2020/12/18 05:24:53;;;;;;;5.70;2.78;;;7.40;99.90;;;;;;5049428;28;20512;-72
2020/12/18 05:27:22;;;;;;;3.92;2.08;;;7.40;99.90;;;;;;5049116;28;20026;-72
2020/12/18 05:29:50;;;;;;;4.18;1.92;;;7.40;99.90;;;;;;5032601;28;20033;-71
2020/12/18 05:32:17;;;;;;;3.33;1.85;;;7.50;99.90;;;;;;5032736;28;20478;-72
2020/12/18 05:34:45;;;;;;;3.10;2.00;;;7.60;99.90;;;;;;5032905;28;20042;-72
2020/12/18 05:37:15;;;;;;;3.13;2.00;;;7.50;99.90;;;;;;5032864;28;20022;-72
2020/12/18 05:39:43;;;;;;;3.50;1.40;;;7.60;99.90;;;;;;5037758;28;20017;-72
2020/12/18 05:42:10;;;;;;;3.88;1.73;;;7.70;99.90;;;;;;5052165;28;20025;-72
2020/12/18 05:44:37;;;;;;;2.30;1.50;;;7.70;99.90;;;;;;5052477;28;20021;-72
2020/12/18 05:47:09;;;;;;;3.45;1.30;;;7.90;99.90;;;;;;5052444;28;20048;-71
2020/12/18 05:49:40;;;;;;;1.95;1.20;;;7.90;99.90;;;;;;5052276;28;20021;-72
2020/12/18 05:52:18;;;;;;;6.60;1.90;;;7.90;99.90;;;;;;5052477;28;20033;-71
2020/12/18 05:54:45;;;;;;;1.58;1.02;;;7.90;99.90;;;;;;5052305;28;20040;-73
2020/12/18 05:57:14;;;;;;;2.83;0.95;;;7.90;99.90;;;;;;5052092;28;20029;-71
2020/12/18 05:59:48;;;;;;;6.63;1.20;;;8.00;99.90;;;;;;5051930;28;20045;-73
2020/12/18 06:02:17;;;;;;;1.77;1.02;;;7.90;99.90;;;;;;5052123;28;20029;-72
2020/12/18 06:04:45;;;;;;;2.38;1.15;;;8.00;99.90;;;;;;5051883;28;20021;-72
2020/12/18 06:07:14;;;;;;;2.55;0.80;;;8.00;99.90;;;;;;5052240;28;20029;-72
2020/12/18 06:09:42;;;;;;;0.93;0.50;;;8.00;99.90;;;;;;5051939;28;20029;-72
2020/12/18 06:12:13;;;;;;;1.75;0.88;;;7.90;99.90;;;;;;5052024;28;20509;-72
2020/12/18 06:14:41;;;;;;;2.25;0.70;;;7.90;99.90;;;;;;5051523;28;20048;-72
2020/12/18 06:17:10;;;;;;;2.05;0.70;;;7.90;99.90;;;;;;5038927;28;20033;-72
2020/12/18 06:19:44;;;;;;;1.75;0.85;;;7.90;99.90;;;;;;5031985;28;20040;-71
2020/12/18 06:22:12;;;;;;;2.53;0.63;;;7.80;99.90;;;;;;5031813;28;20458;-72
2020/12/18 06:24:42;;;;;;;1.55;0.80;;;7.80;99.90;;;;;;5031797;28;20037;-72
2020/12/18 06:27:18;;;;;;;2.03;0.75;;;7.90;99.90;;;;;;5042952;28;20045;-72
2020/12/18 06:29:47;;;;;;;3.70;0.60;;;7.90;99.90;;;;;;5031240;28;20056;-72
2020/12/18 06:32:31;;;;;;;3.30;0.50;;;8.00;99.90;;;;;;5033084;28;20034;-71
2020/12/18 06:35:29;;;;;;;1.85;0.80;;;8.00;99.90;;;;;;5041956;28;20033;-71
2020/12/18 06:38:19;;;;;;;1.20;0.40;;;8.00;99.90;;;;;;5051545;28;20025;-72
2020/12/18 06:40:46;;;;;;;1.15;0.45;;;7.90;99.90;;;;;;5051483;28;20025;-71
2020/12/18 06:43:13;;;;;;;1.92;0.73;;;7.90;99.90;;;;;;5050758;28;20045;-72
2020/12/18 06:45:40;;;;;;;1.05;0.47;;;7.80;99.90;;;;;;5051029;28;20029;-72
2020/12/18 06:48:27;;;;;;;3.67;0.75;;;7.90;99.90;;;;;;5051329;28;20040;-72
2020/12/18 06:50:54;;;;;;;0.93;0.43;;;8.00;99.90;;;;;;5051419;28;20028;-72
2020/12/18 06:53:21;;;;;;;2.35;0.70;;;7.90;99.90;;;;;;5051088;28;20049;-73
2020/12/18 06:55:48;;;;;;;1.13;0.40;;;7.80;99.90;;;;;;5051087;28;20462;-74
2020/12/18 06:58:28;;;;;;;4.28;1.52;;;7.90;99.90;;;;;;5051107;28;20055;-73
2020/12/18 07:01:00;;;;;;;2.78;0.80;;;7.90;99.90;;;;;;5051372;28;20025;-72
2020/12/18 07:03:36;;;;;;;1.88;0.88;;;7.90;99.90;;;;;;5045051;28;20299;-72
2020/12/18 07:06:21;;;;;;;1.67;0.50;;;7.80;99.90;;;;;;5051449;28;20032;-73
2020/12/18 07:08:49;;;;;;;1.08;0.40;;;7.80;99.90;;;;;;5051280;28;20033;-73
2020/12/18 07:11:20;;;;;;;1.02;0.47;;;7.70;99.90;;;;;;5051135;28;20032;-74
2020/12/18 07:13:51;;;;;;;2.47;0.82;;;7.70;99.90;;;;;;5051205;28;20041;-72
2020/12/18 07:16:31;;;;;;;13.20;1.40;;;7.60;99.90;;;;;;5050055;28;20029;-72
2020/12/18 07:18:59;;;;;;;2.50;1.10;;;7.60;99.90;;;;;;5045700;28;20147;-75
2020/12/18 07:21:26;;;;;;;3.38;0.77;;;7.60;99.90;;;;;;5034338;28;20041;-73
2020/12/18 07:23:53;;;;;;;2.88;0.80;;;7.50;99.90;;;;;;5035487;28;20037;-75
2020/12/18 07:26:21;;;;;;;1.27;0.50;;;7.50;99.90;;;;;;5035159;28;20028;-71
2020/12/18 07:28:52;;;;;;;2.15;0.60;;;7.60;99.90;;;;;;5035173;28;20025;-73
2020/12/18 07:31:24;;;;;;;3.87;0.43;;;7.60;99.90;;;;;;5035127;28;20021;-73
2020/12/18 07:34:00;;;;;;;1.33;0.70;;;7.60;99.90;;;;;;5048270;28;20294;-74
2020/12/18 07:36:29;;;;;;;1.60;0.40;;;7.60;99.90;;;;;;5053530;28;20024;-73
2020/12/18 07:38:57;;;;;;;1.98;0.40;;;7.60;99.90;;;;;;5037903;28;20030;-71
2020/12/18 07:41:29;;;;;;;1.58;0.50;;;7.50;99.90;;;;;;5039745;28;20103;-70
2020/12/18 07:44:07;;;;;;;1.00;0.40;;;7.60;99.90;;;;;;5053184;28;20504;-69
2020/12/18 07:46:35;;;;;;;1.10;0.45;;;7.60;99.90;;;;;;5035334;28;20029;-70
2020/12/18 07:49:10;;;;;;;1.33;0.40;;;7.60;99.90;;;;;;5036277;28;20031;-70
2020/12/18 07:51:40;;;;;;;1.20;0.45;;;7.80;99.90;;;;;;5036230;28;20029;-72
2020/12/18 07:54:07;;;;;;;2.15;0.43;;;7.90;99.90;;;;;;5054655;28;20048;-73
2020/12/18 07:56:34;;;;;;;2.25;0.32;;;7.90;99.90;;;;;;5052710;28;20032;-71
2020/12/18 07:59:07;;;;;;;1.15;0.40;;;8.00;99.90;;;;;;5044429;28;20412;-73
2020/12/18 08:01:36;;;;;;;0.98;0.30;;;8.00;99.90;;;;;;5035584;28;20097;-71
2020/12/18 08:04:10;;;;;;;2.42;0.40;;;8.10;99.90;;;;;;5036567;28;20040;-70
2020/12/18 08:06:39;;;;;;;1.13;0.38;;;8.10;99.90;;;;;;5043279;28;20032;-71
2020/12/18 08:09:08;;;;;;;0.73;0.38;;;7.90;99.90;;;;;;5049804;28;20049;-71
2020/12/18 08:11:37;;;;;;;1.45;0.30;;;7.90;99.90;;;;;;5034420;28;20032;-71
2020/12/18 08:14:06;;;;;;;2.35;0.35;;;7.90;99.90;;;;;;5047689;28;20343;-71
2020/12/18 08:16:37;;;;;;;3.47;0.43;;;7.90;99.90;;;;;;5050784;28;20033;-71
2020/12/18 08:19:09;;;;;;;1.17;0.30;;;7.90;99.60;;;;;;5043934;28;20390;-71
2020/12/18 08:21:46;;;;;;;0.50;0.30;;;7.90;99.90;;;;;;5052554;28;20382;-72
2020/12/18 08:24:30;;;;;;;0.80;0.40;;;7.80;99.90;;;;;;5051498;28;20485;-73
2020/12/18 08:27:14;;;;;;;0.57;0.38;;;7.70;99.90;;;;;;5052191;28;20040;-74
2020/12/18 08:29:46;;;;;;;2.13;0.30;;;7.60;99.90;;;;;;5051618;28;20052;-74
2020/12/18 08:32:26;;;;;;;4.95;0.30;;;7.60;99.90;;;;;;5052288;28;20028;-73
2020/12/18 08:35:03;;;;;;;2.70;0.40;;;7.60;99.90;;;;;;5033942;28;20034;-73
2020/12/18 08:37:30;;;;;;;1.08;0.30;;;7.70;99.40;;;;;;5034072;28;20025;-73
2020/12/18 08:39:57;;;;;;;0.63;0.30;;;7.70;99.50;;;;;;5035181;28;20036;-73
2020/12/18 08:42:25;;;;;;;4.78;0.30;;;7.60;99.90;;;;;;5034453;28;20021;-73
2020/12/18 08:44:52;;;;;;;1.20;0.30;;;7.60;99.90;;;;;;5033783;28;20072;-72
2020/12/18 08:47:30;;;;;;;0.47;0.28;;;7.60;99.60;;;;;;5033703;28;20030;-73
2020/12/18 08:49:59;;;;;;;1.35;0.35;;;7.60;99.90;;;;;;5033697;28;20025;-73
2020/12/18 08:52:30;;;;;;;0.20;0.20;;;7.60;99.90;;;;;;5033811;28;20020;-73
2020/12/18 08:55:04;;;;;;;0.68;0.25;;;7.60;99.90;;;;;;5033262;28;20061;-75
2020/12/18 08:57:33;;;;;;;1.08;0.30;;;7.50;99.70;;;;;;5033444;28;20032;-75
2020/12/18 09:00:10;;;;;;;0.20;0.20;;;7.50;99.30;;;;;;5035860;28;20040;-74
2020/12/18 09:03:00;;;;;;;0.52;0.30;;;7.40;99.50;;;;;;5033109;28;20370;-74
2020/12/18 09:05:31;;;;;;;2.50;0.30;;;7.50;99.10;;;;;;5033626;28;20025;-74
2020/12/18 09:08:04;;;;;;;1.48;0.30;;;7.50;99.30;;;;;;5032022;28;20038;-73
2020/12/18 09:10:42;;;;;;;0.40;0.30;;;7.40;99.50;;;;;;5034232;28;20502;-74
2020/12/18 09:13:20;;;;;;;0.73;0.30;;;7.40;99.30;;;;;;5033432;28;20040;-74
2020/12/18 09:16:02;;;;;;;1.42;0.40;;;7.40;99.00;;;;;;5033253;28;20038;-74
2020/12/18 09:18:59;;;;;;;0.82;0.30;;;7.40;99.20;;;;;;5041374;28;20043;-71
2020/12/18 09:21:28;;;;;;;0.63;0.20;;;7.40;98.40;;;;;;5052742;28;20024;-72
2020/12/18 09:23:55;;;;;;;0.30;0.20;;;7.40;98.20;;;;;;5045458;28;20029;-72
2020/12/18 09:26:26;;;;;;;0.98;0.38;;;7.50;97.70;;;;;;5032912;28;20036;-73
2020/12/18 09:28:53;;;;;;;0.73;0.30;;;7.50;97.90;;;;;;5034226;28;20036;-74
2020/12/18 09:31:24;;;;;;;0.50;0.20;;;7.40;97.90;;;;;;5039394;28;20032;-73
2020/12/18 09:33:51;;;;;;;0.43;0.20;;;7.40;98.30;;;;;;5052975;28;20048;-74
2020/12/18 09:36:19;;;;;;;1.42;0.30;;;7.40;97.80;;;;;;5041123;28;20037;-73
2020/12/18 09:38:48;;;;;;;0.13;0.13;;;7.40;97.50;;;;;;5034149;28;20025;-73
2020/12/18 09:41:22;;;;;;;0.77;0.30;;;7.40;98.50;;;;;;5049867;28;20051;-73
2020/12/18 09:43:50;;;;;;;0.77;0.15;;;7.50;96.70;;;;;;5049193;28;20044;-75
2020/12/18 09:46:21;;;;;;;1.13;0.30;;;7.50;96.80;;;;;;5034025;28;20033;-74
2020/12/18 09:48:48;;;;;;;2.65;0.40;;;7.40;98.00;;;;;;5042386;28;20470;-74
2020/12/18 09:51:17;;;;;;;2.17;0.22;;;7.40;97.20;;;;;;5050023;28;20052;-73
2020/12/18 09:53:45;;;;;;;0.70;0.20;;;7.40;99.00;;;;;;5033687;28;20037;-74
2020/12/18 09:56:13;;;;;;;2.05;0.38;;;7.30;98.80;;;;;;5047983;28;20040;-75
2020/12/18 09:58:41;;;;;;;0.50;0.30;;;7.20;98.90;;;;;;5050374;28;20041;-74
2020/12/18 10:01:08;;;;;;;0.60;0.40;;;7.20;98.50;;;;;;5049164;28;20039;-74
2020/12/18 10:03:35;;;;;;;0.80;0.30;;;7.20;98.50;;;;;;5033615;28;20025;-74
2020/12/18 10:06:04;;;;;;;0.68;0.20;;;7.20;98.60;;;;;;5040688;28;20060;-75
2020/12/18 10:08:31;;;;;;;0.63;0.30;;;7.10;98.60;;;;;;5050624;28;20025;-74
2020/12/18 10:10:58;;;;;;;0.50;0.30;;;7.40;97.50;;;;;;5036660;28;20097;-74
2020/12/18 10:13:25;;;;;;;0.90;0.22;;;7.30;97.90;;;;;;5034353;28;20052;-72
2020/12/18 10:15:52;;;;;;;1.75;0.17;;;7.30;97.50;;;;;;5036373;28;20038;-73
2020/12/18 10:18:19;;;;;;;1.35;0.20;;;7.20;97.40;;;;;;5039474;28;20025;-73
2020/12/18 10:20:46;;;;;;;0.90;0.30;;;7.20;98.10;;;;;;5052098;28;20033;-73
2020/12/18 10:23:13;;;;;;;0.80;0.20;;;7.10;98.60;;;;;;5049765;28;20044;-73
2020/12/18 10:25:40;;;;;;;0.73;0.30;;;7.00;97.80;;;;;;5049694;28;20033;-75
2020/12/18 10:28:07;;;;;;;2.45;0.57;;;7.00;99.70;;;;;;5048061;28;20036;-74
2020/12/18 10:30:34;;;;;;;0.28;0.20;;;6.90;98.80;;;;;;5032924;28;20037;-74
2020/12/18 10:33:01;;;;;;;2.15;0.28;;;6.80;99.10;;;;;;5034829;28;20033;-73
2020/12/18 10:35:27;;;;;;;0.45;0.22;;;6.80;98.80;;;;;;5051433;28;20037;-74
2020/12/18 10:37:56;;;;;;;1.00;0.22;;;6.80;99.00;;;;;;5050006;28;20036;-73
2020/12/18 10:40:23;;;;;;;1.65;0.20;;;6.70;99.20;;;;;;5049475;28;20040;-74
2020/12/18 10:42:50;;;;;;;2.53;0.40;;;6.70;98.70;;;;;;5051203;28;20382;-73
2020/12/18 10:45:17;;;;;;;1.23;0.22;;;6.70;99.00;;;;;;5050526;28;20092;-74
2020/12/18 10:47:44;;;;;;;0.65;0.20;;;6.70;98.80;;;;;;5050627;28;20334;-74
2020/12/18 10:50:11;;;;;;;0.32;0.25;;;6.70;99.50;;;;;;5051605;28;20032;-74
2020/12/18 10:52:38;;;;;;;1.33;0.40;;;6.60;99.00;;;;;;5049883;28;20492;-75
2020/12/18 10:55:05;;;;;;;0.30;0.20;;;6.60;99.20;;;;;;5049407;28;20033;-72
2020/12/18 10:57:32;;;;;;;0.75;0.30;;;6.70;99.10;;;;;;5051377;28;20033;-75
2020/12/18 10:59:59;;;;;;;1.38;0.30;;;6.70;98.80;;;;;;5040698;28;20404;-73
2020/12/18 11:02:26;;;;;;;9.02;1.95;;;6.70;98.50;;;;;;5045900;28;20040;-74
2020/12/18 11:04:53;;;;;;;0.38;0.28;;;6.60;98.20;;;;;;5032125;28;20030;-73
2020/12/18 11:07:20;;;;;;;0.90;0.30;;;6.60;98.10;;;;;;5031689;28;20033;-74
2020/12/18 11:09:46;;;;;;;1.35;0.30;;;6.70;97.60;;;;;;5032416;28;20471;-74
2020/12/18 11:12:13;;;;;;;0.90;0.20;;;6.70;97.50;;;;;;5036106;28;20029;-74
2020/12/18 11:14:40;;;;;;;0.10;0.10;;;6.70;97.80;;;;;;5044373;28;20041;-73
2020/12/18 11:17:10;;;;;;;0.52;0.30;;;6.70;97.30;;;;;;5049478;28;20017;-73
2020/12/18 11:19:37;;;;;;;0.50;0.20;;;6.90;96.40;;;;;;5042688;28;20678;-73
2020/12/18 11:22:04;;;;;;;0.43;0.20;;;7.00;95.70;;;;;;5031032;28;20021;-74
2020/12/18 11:24:31;;;;;;;1.15;0.20;;;7.10;96.10;;;;;;5032552;28;20033;-73
2020/12/18 11:26:58;;;;;;;0.60;0.28;;;7.10;95.90;;;;;;5047353;28;20040;-73
2020/12/18 11:29:25;;;;;;;2.70;0.20;;;7.20;96.20;;;;;;5041523;28;20029;-73
2020/12/18 11:31:52;;;;;;;0.20;0.20;;;7.20;96.00;;;;;;5047841;28;20033;-73
2020/12/18 11:34:20;;;;;;;1.17;0.20;;;7.20;95.20;;;;;;5048111;28;20052;-73
2020/12/18 11:36:47;;;;;;;0.30;0.10;;;7.30;93.70;;;;;;5034906;28;20498;-73
2020/12/18 11:39:15;;;;;;;1.77;0.20;;;7.40;94.30;;;;;;5035919;28;20028;-73
2020/12/18 11:41:42;;;;;;;1.00;0.20;;;7.40;94.60;;;;;;5045324;28;20034;-72
2020/12/18 11:44:10;;;;;;;0.20;0.10;;;7.30;95.70;;;;;;5044687;28;20108;-73
2020/12/18 11:46:37;;;;;;;1.17;0.68;;;7.20;95.60;;;;;;5052119;28;20579;-74
2020/12/18 11:49:04;;;;;;;0.20;0.10;;;7.10;94.70;;;;;;5050974;28;20025;-74
2020/12/18 11:51:31;;;;;;;0.57;0.15;;;7.10;95.30;;;;;;5036799;28;20033;-73
2020/12/18 11:53:59;;;;;;;0.45;0.08;;;7.10;95.40;;;;;;5034736;28;20021;-73
2020/12/18 11:56:26;;;;;;;0.43;0.13;;;7.00;95.60;;;;;;5051085;28;20040;-73
2020/12/18 11:58:53;;;;;;;0.65;0.30;;;6.90;95.40;;;;;;5049818;28;20393;-73
2020/12/18 12:01:22;;;;;;;0.43;0.20;;;6.90;95.80;;;;;;5034124;28;20045;-74
2020/12/18 12:03:51;;;;;;;0.52;0.20;;;6.90;95.10;;;;;;5037097;28;20036;-73
2020/12/18 12:06:19;;;;;;;1.52;0.50;;;6.90;95.20;;;;;;5033200;28;20029;-74
2020/12/18 12:08:49;;;;;;;0.32;0.20;;;7.00;95.10;;;;;;5047642;28;20029;-72
2020/12/18 12:11:16;;;;;;;0.30;0.20;;;7.10;94.10;;;;;;5033355;28;20041;-74
2020/12/18 12:13:44;;;;;;;1.80;0.20;;;7.20;94.20;;;;;;5034788;28;20057;-73
2020/12/18 12:16:13;;;;;;;0.77;0.20;;;7.20;93.50;;;;;;5036634;28;20052;-74
2020/12/18 12:18:41;;;;;;;0.77;0.20;;;7.30;94.10;;;;;;5035830;28;20462;-74
2020/12/18 12:21:08;;;;;;;0.30;0.20;;;7.30;94.60;;;;;;5035785;28;20045;-74
2020/12/18 12:23:35;;;;;;;0.30;0.10;;;7.20;93.70;;;;;;5054058;28;20021;-74
2020/12/18 12:26:02;;;;;;;0.50;0.20;;;7.30;93.40;;;;;;5037238;28;20029;-73
2020/12/18 12:28:29;;;;;;;0.10;0.10;;;7.20;93.70;;;;;;5035294;28;20412;-74
2020/12/18 12:30:56;;;;;;;0.30;0.10;;;7.10;94.00;;;;;;5051550;28;20473;-75
2020/12/18 12:33:23;;;;;;;0.30;0.15;;;7.10;94.30;;;;;;5050200;28;20029;-74
2020/12/18 12:35:50;;;;;;;2.30;0.20;;;7.00;94.40;;;;;;5052671;28;20060;-74
2020/12/18 12:38:17;;;;;;;0.52;0.20;;;7.00;93.70;;;;;;5034998;28;20041;-73
2020/12/18 12:40:52;;;;;;;0.10;0.10;;;7.00;94.20;;;;;;5035236;28;20032;-73
2020/12/18 12:43:19;;;;;;;0.10;0.10;;;7.00;94.50;;;;;;5043498;28;20025;-73
2020/12/18 12:45:46;;;;;;;1.05;0.20;;;7.10;93.60;;;;;;5035627;28;20031;-72
2020/12/18 12:48:13;;;;;;;0.95;0.40;;;7.10;92.50;;;;;;5041767;28;20040;-73
2020/12/18 12:50:41;;;;;;;0.47;0.10;;;7.20;93.10;;;;;;5044525;28;20033;-72
2020/12/18 12:53:08;;;;;;;1.73;0.13;;;7.20;92.20;;;;;;5033673;28;20025;-72
2020/12/18 12:55:35;;;;;;;0.20;0.10;;;7.30;92.20;;;;;;5042183;28;20048;-72
2020/12/18 12:58:02;;;;;;;1.17;0.20;;;7.40;92.60;;;;;;5050248;28;20047;-73
2020/12/18 13:00:29;;;;;;;0.95;0.30;;;7.40;92.00;;;;;;5051629;28;20472;-73
2020/12/18 13:02:57;;;;;;;0.32;0.20;;;7.40;92.80;;;;;;5053126;28;20036;-73